createdAt,value
2023-05-14T00:00:59.459Z,70.84
2023-05-14T00:03:27.102Z,70.93
2023-05-14T00:05:54.498Z,70.91
2023-05-14T00:08:21.828Z,70.73
2023-05-14T00:10:49.149Z,71.10
2023-05-14T00:13:16.538Z,70.90
2023-05-14T00:15:45.274Z,70.44
2023-05-14T00:18:12.594Z,70.21
2023-05-14T00:20:41.011Z,70.77
2023-05-14T00:23:08.349Z,70.83
2023-05-14T00:25:36.122Z,70.69
2023-05-14T00:28:03.883Z,70.74
2023-05-14T00:30:31.191Z,70.52
2023-05-14T00:33:00.051Z,70.71
2023-05-14T00:35:27.613Z,70.50
2023-05-14T00:37:55.000Z,70.19
2023-05-14T00:40:25.642Z,71.05
2023-05-14T00:42:53.345Z,70.83
2023-05-14T00:45:20.924Z,70.51
2023-05-14T00:47:48.604Z,70.27
2023-05-14T00:50:18.309Z,70.86
2023-05-14T00:52:46.021Z,70.45
2023-05-14T00:55:15.318Z,70.35
2023-05-14T00:57:43.000Z,70.38
2023-05-14T01:00:11.038Z,70.61
2023-05-14T01:02:38.523Z,70.60
2023-05-14T01:05:08.037Z,70.93
2023-05-14T01:07:49.136Z,70.99
2023-05-14T01:10:25.139Z,70.90
2023-05-14T01:13:02.192Z,70.78
2023-05-14T01:15:33.415Z,70.62
2023-05-14T01:18:04.756Z,70.61
2023-05-14T01:20:32.132Z,70.93
2023-05-14T01:23:01.460Z,70.79
2023-05-14T01:25:29.835Z,70.89
2023-05-14T01:28:04.436Z,70.64
2023-05-14T01:30:35.764Z,70.05
2023-05-14T01:33:06.264Z,70.73
2023-05-14T01:35:33.932Z,70.47
2023-05-14T01:38:06.826Z,70.50
2023-05-14T01:40:36.046Z,70.85
2023-05-14T01:43:04.170Z,70.90
2023-05-14T01:45:35.185Z,70.54
2023-05-14T01:48:02.981Z,70.71
2023-05-14T01:50:30.352Z,71.34
2023-05-14T01:52:57.910Z,71.23
2023-05-14T01:55:26.753Z,70.95
2023-05-14T01:57:54.782Z,71.00
2023-05-14T02:00:24.527Z,71.21
2023-05-14T02:02:52.280Z,71.96
2023-05-14T02:05:19.928Z,71.93
2023-05-14T02:07:47.240Z,73.23
2023-05-14T02:10:14.587Z,73.48
2023-05-14T02:12:43.286Z,73.25
2023-05-14T02:15:11.100Z,73.44
2023-05-14T02:17:38.495Z,73.27
2023-05-14T02:20:07.423Z,73.04
2023-05-14T02:22:34.753Z,73.04
2023-05-14T02:25:02.232Z,72.82
2023-05-14T02:27:29.659Z,72.52
2023-05-14T02:29:58.474Z,73.07
2023-05-14T02:32:25.828Z,72.84
2023-05-14T02:34:53.212Z,73.38
2023-05-14T02:37:20.514Z,73.78
2023-05-14T02:39:47.787Z,73.91
2023-05-14T02:42:15.106Z,74.02
2023-05-14T02:44:42.418Z,74.47
2023-05-14T02:47:11.197Z,75.17
2023-05-14T02:49:38.789Z,74.29
2023-05-14T02:52:06.548Z,74.14
2023-05-14T02:54:33.906Z,74.63
2023-05-14T02:57:01.253Z,74.41
2023-05-14T02:59:28.597Z,74.89
2023-05-14T03:01:56.486Z,74.58
2023-05-14T03:04:25.543Z,75.28
2023-05-14T03:06:52.827Z,74.51
2023-05-14T03:09:20.169Z,74.13
2023-05-14T03:11:47.563Z,74.64
2023-05-14T03:14:14.976Z,74.49
2023-05-14T03:16:42.538Z,74.37
2023-05-14T03:19:10.193Z,74.11
2023-05-14T03:21:39.340Z,73.85
2023-05-14T03:24:06.947Z,74.06
2023-05-14T03:26:34.252Z,74.10
2023-05-14T03:29:02.816Z,74.16
2023-05-14T03:31:30.183Z,73.59
2023-05-14T03:33:57.672Z,72.91
2023-05-14T03:36:25.049Z,73.53
2023-05-14T03:38:53.715Z,73.45
2023-05-14T03:41:21.069Z,73.52
2023-05-14T03:43:48.395Z,73.53
2023-05-14T03:46:15.899Z,74.15
2023-05-14T03:48:43.326Z,74.78
2023-05-14T03:51:10.656Z,74.56
2023-05-14T03:53:38.051Z,74.37
2023-05-14T03:56:06.951Z,74.42
2023-05-14T03:58:34.254Z,74.32
2023-05-14T04:01:01.589Z,74.25
2023-05-14T04:03:29.238Z,74.74
2023-05-14T04:05:56.643Z,74.59
2023-05-14T04:08:24.068Z,74.32
2023-05-14T04:10:51.427Z,73.87
2023-05-14T04:13:20.331Z,74.54
2023-05-14T04:15:47.694Z,74.57
2023-05-14T04:18:15.016Z,74.04
2023-05-14T04:20:42.501Z,74.85
2023-05-14T04:23:09.825Z,74.79
2023-05-14T04:25:37.448Z,73.88
2023-05-14T04:28:05.288Z,73.38
2023-05-14T04:30:33.977Z,73.21
2023-05-14T04:33:01.466Z,72.90
2023-05-14T04:35:28.899Z,72.78
2023-05-14T04:37:56.376Z,72.47
2023-05-14T04:40:24.250Z,72.86
2023-05-14T04:42:51.872Z,72.35
2023-05-14T04:45:19.330Z,72.56
2023-05-14T04:47:48.085Z,72.49
2023-05-14T04:50:15.661Z,72.55
2023-05-14T04:52:43.042Z,72.30
2023-05-14T04:55:10.431Z,72.26
2023-05-14T04:57:37.843Z,72.33
2023-05-14T05:00:06.214Z,72.49
2023-05-14T05:02:33.520Z,72.80
2023-05-14T05:05:03.045Z,73.42
2023-05-14T05:07:30.335Z,72.52
2023-05-14T05:09:57.826Z,72.30
2023-05-14T05:12:25.160Z,72.33
2023-05-14T05:14:52.508Z,73.35
2023-05-14T05:17:19.841Z,73.86
2023-05-14T05:19:47.195Z,74.52
2023-05-14T05:22:16.236Z,74.52
2023-05-14T05:24:43.612Z,74.25
2023-05-14T05:27:10.939Z,73.91
2023-05-14T05:29:38.432Z,73.71
2023-05-14T05:32:06.985Z,73.22
2023-05-14T05:34:34.706Z,73.67
2023-05-14T05:37:02.194Z,74.15
2023-05-14T05:39:30.879Z,74.98
2023-05-14T05:41:58.178Z,74.43
2023-05-14T05:44:25.558Z,73.76
2023-05-14T05:46:52.878Z,73.72
2023-05-14T05:49:20.239Z,73.92
2023-05-14T05:51:47.566Z,73.78
2023-05-14T05:54:14.946Z,74.39
2023-05-14T05:56:43.843Z,74.47
2023-05-14T05:59:11.130Z,74.97
2023-05-14T06:01:38.690Z,75.73
2023-05-14T06:04:06.012Z,75.49
2023-05-14T06:06:33.353Z,74.88
2023-05-14T06:09:00.673Z,73.98
2023-05-14T06:11:28.183Z,73.80
2023-05-14T06:13:56.956Z,73.28
2023-05-14T06:16:24.432Z,73.64
2023-05-14T06:18:51.873Z,73.28
2023-05-14T06:21:19.213Z,73.40
2023-05-14T06:23:46.541Z,74.42
2023-05-14T06:26:13.885Z,74.78
2023-05-14T06:28:41.186Z,75.04
2023-05-14T06:31:09.874Z,74.50
2023-05-14T06:33:37.248Z,74.19
2023-05-14T06:36:06.232Z,74.25
2023-05-14T06:38:33.681Z,73.52
2023-05-14T06:41:01.080Z,72.59
2023-05-14T06:43:28.368Z,72.27
2023-05-14T06:45:55.763Z,72.37
2023-05-14T06:48:24.585Z,72.25
2023-05-14T06:50:52.033Z,72.71
2023-05-14T06:53:19.372Z,72.75
2023-05-14T06:55:47.855Z,72.75
2023-05-14T06:58:15.288Z,72.93
2023-05-14T07:00:42.814Z,72.20
2023-05-14T07:03:10.218Z,72.76
2023-05-14T07:05:38.933Z,73.18
2023-05-14T07:08:06.253Z,73.66
2023-05-14T07:10:33.771Z,72.96
2023-05-14T07:13:01.080Z,72.84
2023-05-14T07:15:28.356Z,71.92
2023-05-14T07:17:55.712Z,71.46
2023-05-14T07:20:23.477Z,70.87
2023-05-14T07:22:53.120Z,71.00
2023-05-14T07:25:20.459Z,70.51
2023-05-14T07:27:47.762Z,70.20
2023-05-14T07:30:15.246Z,70.57
2023-05-14T07:32:43.037Z,70.95
2023-05-14T07:35:10.890Z,71.68
2023-05-14T07:37:38.583Z,73.61
2023-05-14T07:40:08.653Z,73.63
2023-05-14T07:42:37.487Z,72.99
2023-05-14T07:45:05.725Z,71.54
2023-05-14T07:47:33.467Z,70.81
2023-05-14T07:50:00.976Z,71.46
2023-05-14T07:52:28.391Z,71.36
2023-05-14T07:54:55.661Z,70.67
2023-05-14T07:57:24.301Z,71.55
2023-05-14T07:59:51.619Z,71.47
2023-05-14T08:02:18.991Z,71.55
2023-05-14T08:04:46.326Z,73.46
2023-05-14T08:07:13.623Z,74.30
2023-05-14T08:09:40.889Z,72.47
2023-05-14T08:12:08.652Z,71.17
2023-05-14T08:14:37.364Z,70.16
2023-05-14T08:17:05.133Z,70.06
2023-05-14T08:19:32.797Z,69.87
2023-05-14T08:22:00.071Z,70.29
2023-05-14T08:24:27.345Z,69.81
2023-05-14T08:26:55.079Z,70.55
2023-05-14T08:29:22.390Z,70.10
2023-05-14T08:31:51.094Z,70.42
2023-05-14T08:34:18.415Z,70.44
2023-05-14T08:36:45.845Z,71.41
2023-05-14T08:39:13.098Z,71.54
2023-05-14T08:41:41.267Z,72.05
2023-05-14T08:44:13.437Z,71.37
2023-05-14T08:46:41.296Z,70.88
2023-05-14T08:49:15.765Z,70.17
2023-05-14T08:51:44.161Z,70.16
2023-05-14T08:54:14.007Z,69.67
2023-05-14T08:56:43.709Z,69.84
2023-05-14T08:59:11.201Z,69.35
2023-05-14T09:01:39.224Z,68.93
2023-05-14T09:04:06.830Z,69.96
2023-05-14T09:06:36.612Z,68.90
2023-05-14T09:09:04.331Z,67.82
2023-05-14T09:11:31.661Z,68.43
2023-05-14T09:13:58.956Z,67.34
2023-05-14T09:16:27.236Z,66.83
2023-05-14T09:18:54.796Z,65.74
2023-05-14T09:21:22.543Z,61.32
2023-05-14T09:23:53.849Z,63.22
2023-05-14T09:26:23.745Z,61.36
2023-05-14T09:28:54.000Z,59.86
2023-05-14T09:31:21.673Z,59.45
2023-05-14T09:33:50.813Z,59.77
2023-05-14T09:36:18.290Z,58.77
2023-05-14T09:38:45.750Z,60.58
2023-05-14T09:41:14.479Z,62.21
2023-05-14T09:43:41.770Z,62.81
2023-05-14T09:46:09.258Z,62.53
2023-05-14T09:48:36.594Z,62.90
2023-05-14T09:51:04.782Z,61.35
2023-05-14T09:53:33.279Z,61.34
2023-05-14T09:56:00.628Z,61.34
2023-05-14T09:58:29.581Z,58.82
2023-05-14T10:00:58.374Z,56.15
2023-05-14T10:03:26.573Z,54.42
2023-05-14T10:05:56.411Z,53.07
2023-05-14T10:08:26.945Z,53.40
2023-05-14T10:10:55.137Z,53.27
2023-05-14T10:13:26.720Z,54.42
2023-05-14T10:15:59.879Z,53.28
2023-05-14T10:18:31.559Z,53.37
2023-05-14T10:21:04.692Z,52.89
2023-05-14T10:23:32.905Z,52.36
2023-05-14T10:26:01.398Z,52.32
2023-05-14T10:28:28.825Z,51.88
2023-05-14T10:31:01.118Z,52.17
2023-05-14T10:33:28.479Z,52.75
2023-05-14T10:35:57.843Z,51.41
2023-05-14T10:38:27.550Z,52.23
2023-05-14T10:40:56.840Z,53.87
2023-05-14T10:43:26.497Z,51.59
2023-05-14T10:45:53.959Z,50.03
2023-05-14T10:48:22.919Z,50.31
2023-05-14T10:50:50.951Z,50.73
2023-05-14T10:53:18.694Z,52.42
2023-05-14T10:55:46.174Z,53.14
2023-05-14T10:58:14.803Z,52.54
2023-05-14T11:00:42.137Z,53.20
2023-05-14T11:03:10.501Z,53.68
2023-05-14T11:05:41.071Z,52.72
2023-05-14T11:08:08.986Z,53.56
2023-05-14T11:10:36.261Z,54.21
2023-05-14T11:13:03.650Z,52.26
2023-05-14T11:15:31.308Z,52.40
2023-05-14T11:17:58.679Z,51.61
2023-05-14T11:20:26.485Z,52.58
2023-05-14T11:22:55.331Z,50.93
2023-05-14T11:25:22.812Z,50.87
2023-05-14T11:27:50.421Z,48.71
2023-05-14T11:30:19.596Z,48.71
2023-05-14T11:32:48.147Z,48.40
2023-05-14T11:35:16.259Z,49.47
2023-05-14T11:37:43.835Z,48.40
2023-05-14T11:40:16.322Z,48.67
2023-05-14T11:42:43.754Z,43.05
2023-05-14T11:45:11.989Z,44.66
2023-05-14T11:47:40.886Z,45.74
2023-05-14T11:50:09.822Z,46.20
2023-05-14T11:52:39.260Z,47.47
2023-05-14T11:55:10.881Z,47.68
2023-05-14T11:57:40.271Z,46.86
2023-05-14T12:00:09.550Z,48.07
2023-05-14T12:02:37.884Z,47.69
2023-05-14T12:05:06.612Z,48.89
2023-05-14T12:07:33.967Z,49.13
2023-05-14T12:10:03.244Z,50.15
2023-05-14T12:12:35.164Z,49.99
2023-05-14T12:15:12.001Z,49.73
2023-05-14T12:17:39.429Z,50.20
2023-05-14T12:20:09.630Z,49.70
2023-05-14T12:22:37.283Z,50.83
2023-05-14T12:25:10.271Z,52.04
2023-05-14T12:27:37.908Z,50.82
2023-05-14T12:32:38.849Z,52.17
2023-05-14T12:35:06.495Z,52.94
2023-05-14T12:37:33.819Z,52.43
2023-05-14T12:40:01.168Z,51.54
2023-05-14T12:42:28.596Z,45.02
2023-05-14T12:44:56.029Z,47.51
2023-05-14T12:47:24.755Z,47.87
2023-05-14T12:49:52.162Z,48.92
2023-05-14T12:52:35.961Z,47.78
2023-05-14T12:55:06.348Z,46.82
2023-05-14T12:57:33.719Z,46.16
2023-05-14T13:00:01.706Z,45.13
2023-05-14T13:02:30.529Z,45.66
2023-05-14T13:04:57.800Z,43.27
2023-05-14T13:07:25.101Z,41.95
2023-05-14T13:09:52.411Z,42.36
2023-05-14T13:12:19.678Z,43.81
2023-05-14T13:14:46.998Z,42.38
2023-05-14T13:17:14.385Z,42.09
2023-05-14T13:19:43.108Z,44.18
2023-05-14T13:22:10.536Z,41.83
2023-05-14T13:24:37.987Z,41.83
2023-05-14T13:27:05.672Z,44.69
2023-05-14T13:29:33.107Z,46.53
2023-05-14T13:32:00.650Z,49.32
2023-05-14T13:34:27.921Z,53.02
2023-05-14T13:36:56.565Z,57.25
2023-05-14T13:39:23.884Z,59.13
2023-05-14T13:41:51.178Z,61.50
2023-05-14T13:44:18.632Z,62.16
2023-05-14T13:46:46.007Z,62.84
2023-05-14T13:49:13.317Z,63.43
2023-05-14T13:51:40.652Z,63.85
2023-05-14T13:54:09.295Z,65.50
2023-05-14T13:56:36.697Z,63.81
2023-05-14T13:59:04.177Z,64.65
2023-05-14T14:01:31.786Z,64.72
2023-05-14T14:03:59.311Z,66.26
2023-05-14T14:06:26.927Z,65.62
2023-05-14T14:08:54.271Z,65.03
2023-05-14T14:11:23.156Z,64.17
2023-05-14T14:13:50.526Z,64.35
2023-05-14T14:16:18.059Z,64.48
2023-05-14T14:18:45.490Z,66.07
2023-05-14T14:21:12.855Z,64.45
2023-05-14T14:23:40.111Z,64.04
2023-05-14T14:26:07.368Z,63.23
2023-05-14T14:28:36.027Z,63.40
2023-05-14T14:31:03.559Z,60.88
2023-05-14T14:33:30.930Z,60.39
2023-05-14T14:35:58.230Z,61.37
2023-05-14T14:38:25.617Z,61.09
2023-05-14T14:40:53.097Z,62.24
2023-05-14T14:43:20.533Z,64.55
2023-05-14T14:45:49.530Z,65.11
2023-05-14T14:48:27.058Z,64.53
2023-05-14T14:50:55.126Z,64.17
2023-05-14T14:53:23.152Z,64.80
2023-05-14T14:55:51.352Z,64.34
2023-05-14T14:58:19.990Z,64.92
2023-05-14T15:00:50.061Z,65.73
2023-05-14T15:03:18.114Z,66.31
2023-05-14T15:05:45.651Z,66.96
2023-05-14T15:08:12.933Z,67.13
2023-05-14T15:10:40.242Z,67.30
2023-05-14T15:13:08.595Z,66.80
2023-05-14T15:15:36.258Z,66.53
2023-05-14T15:18:05.382Z,66.55
2023-05-14T15:20:32.886Z,66.61
2023-05-14T15:23:00.215Z,66.49
2023-05-14T15:25:27.507Z,68.65
2023-05-14T15:27:54.928Z,69.90
2023-05-14T15:30:24.467Z,68.52
2023-05-14T15:32:52.017Z,68.69
2023-05-14T15:35:20.744Z,68.99
2023-05-14T15:37:48.309Z,68.74
2023-05-14T15:40:15.588Z,69.57
2023-05-14T15:42:43.910Z,69.47
2023-05-14T15:45:13.297Z,68.97
2023-05-14T15:47:41.141Z,69.29
2023-05-14T15:50:09.128Z,69.35
2023-05-14T15:52:37.832Z,69.21
2023-05-14T15:55:06.594Z,69.30
2023-05-14T15:57:34.232Z,69.54
2023-05-14T16:00:01.746Z,70.78
2023-05-14T16:02:29.044Z,70.41
2023-05-14T16:04:56.372Z,71.14
2023-05-14T16:07:23.888Z,70.96
2023-05-14T16:09:52.699Z,72.08
2023-05-14T16:12:20.061Z,72.51
2023-05-14T16:14:47.368Z,71.99
2023-05-14T16:17:14.718Z,72.00
2023-05-14T16:19:42.124Z,72.34
2023-05-14T16:22:09.458Z,72.46
2023-05-14T16:24:36.795Z,71.63
2023-05-14T16:29:33.440Z,72.12
2023-05-14T16:32:01.008Z,72.24
2023-05-14T16:34:28.375Z,72.10
2023-05-14T16:36:55.694Z,71.32
2023-05-14T16:39:22.964Z,71.88
2023-05-14T16:41:50.295Z,72.11
2023-05-14T16:44:18.961Z,72.37
2023-05-14T16:46:46.353Z,71.71
2023-05-14T16:49:14.990Z,71.40
2023-05-14T16:51:42.469Z,71.52
2023-05-14T16:54:09.877Z,71.53
2023-05-14T16:56:37.214Z,70.97
2023-05-14T16:59:04.542Z,71.24
2023-05-14T17:01:33.848Z,70.33
2023-05-14T17:04:01.225Z,68.96
2023-05-14T17:06:28.538Z,67.31
2023-05-14T17:08:55.805Z,66.88
2023-05-14T17:11:23.103Z,64.82
2023-05-14T17:13:50.597Z,65.36
2023-05-14T17:16:18.180Z,65.89
2023-05-14T17:18:47.186Z,65.19
2023-05-14T17:21:17.129Z,65.12
2023-05-14T17:23:44.428Z,64.75
2023-05-14T17:26:11.788Z,64.76
2023-05-14T17:28:39.292Z,64.89
2023-05-14T17:31:06.661Z,64.57
2023-05-14T17:33:34.264Z,63.60
2023-05-14T17:36:03.261Z,64.45
2023-05-14T17:38:30.589Z,64.39
2023-05-14T17:40:57.970Z,64.63
2023-05-14T17:43:25.261Z,64.46
2023-05-14T17:45:54.318Z,63.83
2023-05-14T17:48:22.515Z,64.00
2023-05-14T17:50:49.841Z,63.05
2023-05-14T17:53:18.688Z,63.06
2023-05-14T17:55:46.038Z,62.09
2023-05-14T17:58:14.092Z,61.27
2023-05-14T18:00:42.035Z,62.75
2023-05-14T18:03:09.512Z,62.04
2023-05-14T18:05:36.989Z,62.57
2023-05-14T18:08:04.900Z,60.91
2023-05-14T18:10:33.571Z,62.35
2023-05-14T18:13:01.060Z,61.61
2023-05-14T18:15:29.008Z,61.92
2023-05-14T18:17:56.416Z,61.10
2023-05-14T18:20:23.779Z,61.27
2023-05-14T18:22:51.382Z,61.66
2023-05-14T18:25:19.043Z,62.55
2023-05-14T18:27:47.858Z,61.69
2023-05-14T18:30:16.029Z,61.87
2023-05-14T18:32:44.482Z,62.78
2023-05-14T18:35:12.974Z,61.89
2023-05-14T18:37:40.595Z,62.78
2023-05-14T18:40:08.997Z,61.52
2023-05-14T18:42:36.369Z,61.76
2023-05-14T18:45:05.960Z,62.08
2023-05-14T18:47:33.708Z,62.51
2023-05-14T18:50:01.053Z,62.53
2023-05-14T18:52:28.713Z,62.84
2023-05-14T18:54:55.986Z,63.01
2023-05-14T18:57:23.350Z,63.11
2023-05-14T18:59:50.736Z,63.45
2023-05-14T19:02:19.673Z,62.87
2023-05-14T19:07:17.577Z,63.32
2023-05-14T19:09:44.941Z,63.73
2023-05-14T19:12:14.649Z,64.08
2023-05-14T19:14:41.968Z,63.49
2023-05-14T19:17:09.454Z,64.00
2023-05-14T19:19:38.202Z,63.34
2023-05-14T19:22:08.374Z,64.94
2023-05-14T19:24:35.662Z,64.11
2023-05-14T19:27:03.075Z,64.25
2023-05-14T19:29:30.532Z,64.12
2023-05-14T19:31:57.877Z,64.36
2023-05-14T19:34:25.273Z,64.27
2023-05-14T19:36:54.140Z,64.74
2023-05-14T19:39:21.715Z,64.89
2023-05-14T19:41:49.017Z,64.69
2023-05-14T19:44:16.381Z,65.06
2023-05-14T19:46:43.829Z,64.81
2023-05-14T19:49:11.396Z,64.90
2023-05-14T19:51:38.922Z,65.01
2023-05-14T19:54:07.708Z,64.80
2023-05-14T19:56:35.576Z,64.66
2023-05-14T19:59:02.909Z,64.49
2023-05-14T20:01:30.266Z,64.66
2023-05-14T20:03:57.624Z,64.16
2023-05-14T20:06:25.090Z,64.86
2023-05-14T20:08:52.589Z,64.73
2023-05-14T20:11:21.352Z,64.22
2023-05-14T20:13:48.627Z,64.25
2023-05-14T20:16:16.026Z,63.67
2023-05-14T20:18:43.469Z,64.23
2023-05-14T20:21:11.112Z,64.36
2023-05-14T20:23:38.530Z,63.68
2023-05-14T20:26:05.851Z,64.06
2023-05-14T20:28:34.526Z,64.25
2023-05-14T20:31:01.856Z,64.52
2023-05-14T20:33:29.389Z,64.49
2023-05-14T20:35:56.961Z,64.26
2023-05-14T20:38:24.372Z,64.32
2023-05-14T20:40:51.676Z,64.56
2023-05-14T20:43:19.113Z,64.53
2023-05-14T20:45:47.847Z,65.46
2023-05-14T20:48:15.398Z,66.35
2023-05-14T20:50:42.724Z,67.11
2023-05-14T20:53:10.206Z,67.07
2023-05-14T20:55:37.631Z,67.79
2023-05-14T20:58:04.938Z,68.45
2023-05-14T21:00:32.403Z,69.36
2023-05-14T21:03:01.288Z,69.47
2023-05-14T21:05:28.871Z,69.80
2023-05-14T21:07:56.203Z,70.06
2023-05-14T21:10:24.046Z,70.46
2023-05-14T21:12:51.578Z,70.26
2023-05-14T21:15:19.056Z,70.48
2023-05-14T21:17:46.384Z,70.20
2023-05-14T21:20:15.284Z,69.81
2023-05-14T21:22:42.769Z,69.97
2023-05-14T21:25:10.388Z,70.12
2023-05-14T21:27:37.713Z,69.73
2023-05-14T21:30:06.565Z,70.46
2023-05-14T21:32:34.094Z,70.56
2023-05-14T21:35:01.390Z,70.42
2023-05-14T21:37:30.255Z,70.94
2023-05-14T21:39:57.541Z,71.48
2023-05-14T21:42:25.057Z,71.28
2023-05-14T21:44:52.468Z,71.14
2023-05-14T21:47:19.910Z,71.30
2023-05-14T21:49:47.196Z,71.56
2023-05-14T21:52:14.600Z,71.77
2023-05-14T21:54:43.338Z,71.95
2023-05-14T21:57:10.630Z,72.89
2023-05-14T21:59:37.965Z,73.72
2023-05-14T22:02:07.389Z,73.85
2023-05-14T22:04:35.490Z,73.17
2023-05-14T22:07:03.023Z,73.19
2023-05-14T22:09:30.507Z,72.35
2023-05-14T22:11:59.324Z,72.83
2023-05-14T22:14:26.700Z,72.86
2023-05-14T22:16:54.245Z,72.87
2023-05-14T22:19:21.777Z,72.23
2023-05-14T22:21:49.216Z,72.27
2023-05-14T22:24:16.501Z,71.84
2023-05-14T22:26:43.979Z,71.22
2023-05-14T22:29:12.696Z,71.43
2023-05-14T22:31:40.066Z,71.71
2023-05-14T22:34:07.449Z,71.43
2023-05-14T22:36:35.043Z,71.36
2023-05-14T22:39:02.470Z,71.19
2023-05-14T22:41:29.804Z,70.90
2023-05-14T22:43:57.098Z,71.01
2023-05-14T22:46:25.961Z,70.64
2023-05-14T22:48:53.269Z,70.80
2023-05-14T22:51:20.679Z,71.03
2023-05-14T22:53:47.948Z,70.67
2023-05-14T22:56:15.511Z,70.83
2023-05-14T22:58:42.913Z,70.51
2023-05-14T23:01:10.206Z,70.61
2023-05-14T23:03:38.891Z,71.23
2023-05-14T23:06:06.673Z,72.28
2023-05-14T23:08:33.972Z,71.92
2023-05-14T23:11:01.263Z,71.50
2023-05-14T23:13:28.722Z,71.60
2023-05-14T23:15:56.505Z,71.27
2023-05-14T23:18:24.177Z,70.55
2023-05-14T23:20:53.009Z,71.25
2023-05-14T23:23:20.335Z,71.53
2023-05-14T23:25:47.742Z,70.98
2023-05-14T23:28:15.045Z,71.49
2023-05-14T23:30:42.391Z,71.66
2023-05-14T23:33:10.059Z,71.43
2023-05-14T23:35:38.794Z,71.57
2023-05-14T23:38:08.087Z,71.10
2023-05-14T23:40:35.507Z,71.31
2023-05-14T23:43:02.839Z,70.63
2023-05-14T23:45:30.609Z,70.56
2023-05-14T23:47:58.911Z,70.78
2023-05-14T23:50:26.371Z,71.25
2023-05-14T23:52:54.878Z,70.79
2023-05-14T23:55:23.744Z,71.01
2023-05-14T23:57:51.244Z,71.05
